createdAt,value
2022-10-20T00:01:50.223Z,4.30
2022-10-20T00:04:16.823Z,3.95
2022-10-20T00:06:43.368Z,3.35
2022-10-20T00:09:10.071Z,3.58
2022-10-20T00:11:36.714Z,4.45
2022-10-20T00:14:03.803Z,4.15
2022-10-20T00:16:31.852Z,3.97
2022-10-20T00:18:59.003Z,3.78
2022-10-20T00:21:27.786Z,4.30
2022-10-20T00:23:54.825Z,3.80
2022-10-20T00:26:26.399Z,4.03
2022-10-20T00:28:53.336Z,4.35
2022-10-20T00:31:22.000Z,3.63
2022-10-20T00:33:48.600Z,4.20
2022-10-20T00:36:17.755Z,5.43
2022-10-20T00:38:44.659Z,4.53
2022-10-20T00:41:19.179Z,4.18
2022-10-20T00:43:50.074Z,4.57
2022-10-20T00:46:21.064Z,4.95
2022-10-20T00:48:51.786Z,3.95
2022-10-20T00:51:20.827Z,4.63
2022-10-20T00:53:49.102Z,4.38
2022-10-20T00:56:15.901Z,4.30
2022-10-20T00:58:42.927Z,4.80
2022-10-20T01:01:10.301Z,4.60
2022-10-20T01:03:42.147Z,4.40
2022-10-20T01:06:08.740Z,4.95
2022-10-20T01:08:35.418Z,4.53
2022-10-20T01:11:20.202Z,5.20
2022-10-20T01:14:17.631Z,6.22
2022-10-20T01:17:08.465Z,5.70
2022-10-20T01:19:54.200Z,4.90
2022-10-20T01:22:32.999Z,6.00
2022-10-20T01:24:59.568Z,4.90
2022-10-20T01:27:52.509Z,5.18
2022-10-20T01:30:21.390Z,5.07
2022-10-20T01:33:00.780Z,5.78
2022-10-20T01:35:35.140Z,5.38
2022-10-20T01:38:04.747Z,5.82
2022-10-20T01:40:45.284Z,5.47
2022-10-20T01:43:13.487Z,5.90
2022-10-20T01:45:45.288Z,6.38
2022-10-20T01:48:13.249Z,5.50
2022-10-20T01:50:41.144Z,5.07
2022-10-20T01:53:07.820Z,6.05
2022-10-20T01:55:34.814Z,6.28
2022-10-20T01:58:28.975Z,7.25
2022-10-20T02:00:59.609Z,6.85
2022-10-20T02:03:33.627Z,6.15
2022-10-20T02:06:09.439Z,6.35
2022-10-20T02:09:02.125Z,6.30
2022-10-20T02:12:11.060Z,6.13
2022-10-20T02:14:38.776Z,6.35
2022-10-20T02:17:12.791Z,6.00
2022-10-20T02:19:42.007Z,6.45
2022-10-20T02:22:10.272Z,6.30
2022-10-20T02:24:39.850Z,6.15
2022-10-20T02:27:32.803Z,6.85
2022-10-20T02:30:05.955Z,6.55
2022-10-20T02:32:34.455Z,6.22
2022-10-20T02:35:06.843Z,7.10
2022-10-20T02:37:34.070Z,6.80
2022-10-20T02:40:01.023Z,6.82
2022-10-20T02:42:27.655Z,6.30
2022-10-20T02:44:55.723Z,6.35
2022-10-20T02:47:22.457Z,6.90
2022-10-20T02:49:49.210Z,7.05
2022-10-20T02:52:15.989Z,7.25
2022-10-20T02:54:42.527Z,6.88
2022-10-20T02:57:09.173Z,7.93
2022-10-20T02:59:35.739Z,7.78
2022-10-20T03:02:02.406Z,7.05
2022-10-20T03:04:29.082Z,6.25
2022-10-20T03:06:55.652Z,7.47
2022-10-20T03:09:22.236Z,8.02
2022-10-20T03:11:48.861Z,6.40
2022-10-20T03:14:15.418Z,6.57
2022-10-20T03:16:42.011Z,6.90
2022-10-20T03:19:11.514Z,7.25
2022-10-20T03:21:38.432Z,8.02
2022-10-20T03:24:05.238Z,8.13
2022-10-20T03:26:32.082Z,7.50
2022-10-20T03:28:58.632Z,7.55
2022-10-20T03:31:25.203Z,7.53
2022-10-20T03:33:51.756Z,7.82
2022-10-20T03:36:18.341Z,8.10
2022-10-20T03:38:44.906Z,8.82
2022-10-20T03:41:11.727Z,8.13
2022-10-20T03:43:41.768Z,7.90
2022-10-20T03:46:11.734Z,8.43
2022-10-20T03:48:39.753Z,7.88
2022-10-20T03:51:07.020Z,7.22
2022-10-20T03:53:33.695Z,8.55
2022-10-20T03:56:05.592Z,7.18
2022-10-20T03:58:32.164Z,6.88
2022-10-20T04:00:58.736Z,8.13
2022-10-20T04:03:25.328Z,7.55
2022-10-20T04:05:51.870Z,7.03
2022-10-20T04:08:18.578Z,7.85
2022-10-20T04:10:45.270Z,7.57
2022-10-20T04:13:11.828Z,7.07
2022-10-20T04:15:38.408Z,7.15
2022-10-20T04:18:04.945Z,7.47
2022-10-20T04:20:31.602Z,7.18
2022-10-20T04:22:58.151Z,7.50
2022-10-20T04:25:24.693Z,6.63
2022-10-20T04:27:51.309Z,7.63
2022-10-20T04:30:18.141Z,7.30
2022-10-20T04:32:44.740Z,7.03
2022-10-20T04:35:12.315Z,8.32
2022-10-20T04:37:39.653Z,7.50
2022-10-20T04:40:06.935Z,8.00
2022-10-20T04:42:33.546Z,7.63
2022-10-20T04:45:00.216Z,7.32
2022-10-20T04:47:26.928Z,7.25
2022-10-20T04:49:53.475Z,7.47
2022-10-20T04:52:20.824Z,8.10
2022-10-20T04:54:47.629Z,7.45
2022-10-20T04:57:14.215Z,7.03
2022-10-20T04:59:40.801Z,7.45
2022-10-20T05:02:07.437Z,8.45
2022-10-20T05:04:34.093Z,7.43
2022-10-20T05:07:00.660Z,7.72
2022-10-20T05:09:27.247Z,7.15
2022-10-20T05:11:53.898Z,7.22
2022-10-20T05:14:20.500Z,7.78
2022-10-20T05:16:47.069Z,8.40
2022-10-20T05:19:13.648Z,7.43
2022-10-20T05:24:18.222Z,7.22
2022-10-20T05:26:47.502Z,7.25
2022-10-20T05:29:14.315Z,6.82
2022-10-20T05:31:42.861Z,6.65
2022-10-20T05:36:36.491Z,7.20
2022-10-20T05:39:03.605Z,7.13
2022-10-20T05:41:34.883Z,7.07
2022-10-20T05:44:06.723Z,6.13
2022-10-20T05:46:34.627Z,6.30
2022-10-20T05:49:03.075Z,6.82
2022-10-20T05:51:35.649Z,6.25
2022-10-20T05:54:02.913Z,6.03
2022-10-20T05:56:30.944Z,6.40
2022-10-20T05:58:58.116Z,5.75
2022-10-20T06:01:27.220Z,6.82
2022-10-20T06:03:58.579Z,6.72
2022-10-20T06:06:27.812Z,6.97
2022-10-20T06:08:54.791Z,6.68
2022-10-20T06:11:22.227Z,6.95
2022-10-20T06:13:51.918Z,6.80
2022-10-20T06:16:22.169Z,6.72
2022-10-20T06:18:49.170Z,5.70
2022-10-20T06:21:20.537Z,5.85
2022-10-20T06:23:47.651Z,6.38
2022-10-20T06:26:25.288Z,6.20
2022-10-20T06:28:54.374Z,5.65
2022-10-20T06:31:23.738Z,5.65
2022-10-20T06:33:50.753Z,5.80
2022-10-20T06:36:18.605Z,5.78
2022-10-20T06:38:45.677Z,5.90
2022-10-20T06:41:15.223Z,5.35
2022-10-20T06:43:42.528Z,5.63
2022-10-20T06:46:12.471Z,5.85
2022-10-20T06:48:39.075Z,5.15
2022-10-20T06:51:07.954Z,5.57
2022-10-20T06:53:35.032Z,5.32
2022-10-20T06:56:06.250Z,5.53
2022-10-20T06:58:34.504Z,4.80
2022-10-20T07:03:36.160Z,5.18
2022-10-20T07:06:04.168Z,5.50
2022-10-20T07:08:32.623Z,4.85
2022-10-20T07:13:28.394Z,5.25
2022-10-20T07:15:56.390Z,4.85
2022-10-20T07:18:24.648Z,4.82
2022-10-20T07:20:51.283Z,4.75
2022-10-20T07:23:18.489Z,5.72
2022-10-20T07:25:45.128Z,4.75
2022-10-20T07:28:11.650Z,5.05
2022-10-20T07:30:40.143Z,5.22
2022-10-20T07:35:34.002Z,4.72
2022-10-20T07:38:00.636Z,4.90
2022-10-20T07:40:27.284Z,6.07
2022-10-20T07:42:54.719Z,5.28
2022-10-20T07:45:21.329Z,4.68
2022-10-20T07:47:47.855Z,5.60
2022-10-20T07:50:14.653Z,5.07
2022-10-20T07:52:41.240Z,5.05
2022-10-20T07:55:17.906Z,5.10
2022-10-20T07:57:54.694Z,4.93
2022-10-20T08:00:21.291Z,4.70
2022-10-20T08:02:48.005Z,4.88
2022-10-20T08:05:14.649Z,4.63
2022-10-20T08:07:41.241Z,4.68
2022-10-20T08:10:08.579Z,5.38
2022-10-20T08:12:35.418Z,4.28
2022-10-20T08:15:06.711Z,4.85
2022-10-20T08:17:33.315Z,5.20
2022-10-20T08:22:40.357Z,4.10
2022-10-20T08:25:07.265Z,5.07
2022-10-20T08:27:33.866Z,4.95
2022-10-20T08:30:19.146Z,4.93
2022-10-20T08:32:53.973Z,4.70
2022-10-20T08:35:21.702Z,5.50
2022-10-20T08:37:48.486Z,4.67
2022-10-20T08:40:28.018Z,4.65
2022-10-20T08:42:54.900Z,4.95
2022-10-20T08:45:24.484Z,5.20
2022-10-20T08:47:53.522Z,4.80
2022-10-20T08:50:21.666Z,4.93
2022-10-20T08:52:54.000Z,4.93
2022-10-20T08:55:32.480Z,4.78
2022-10-20T09:00:31.166Z,5.15
2022-10-20T09:05:30.140Z,4.78
2022-10-20T09:10:29.271Z,5.00
2022-10-20T09:12:56.194Z,5.40
2022-10-20T09:15:23.365Z,5.60
2022-10-20T09:17:53.950Z,5.75
2022-10-20T09:20:44.388Z,5.78
2022-10-20T09:23:39.473Z,5.57
2022-10-20T09:26:37.312Z,4.72
2022-10-20T09:29:14.410Z,5.45
2022-10-20T09:31:42.479Z,5.60
2022-10-20T09:34:28.656Z,6.47
2022-10-20T09:37:18.710Z,6.28
2022-10-20T09:39:52.677Z,5.38
2022-10-20T09:42:31.736Z,5.53
2022-10-20T09:45:05.612Z,5.75
2022-10-20T09:47:33.843Z,5.88
2022-10-20T09:50:04.272Z,5.30
2022-10-20T09:52:40.791Z,5.22
2022-10-20T09:55:26.806Z,5.35
2022-10-20T09:57:54.695Z,6.03
2022-10-20T10:00:38.205Z,5.43
2022-10-20T10:03:22.512Z,5.55
2022-10-20T10:05:57.667Z,5.40
2022-10-20T10:08:30.603Z,5.05
2022-10-20T10:11:05.725Z,6.35
2022-10-20T10:13:38.493Z,5.72
2022-10-20T10:16:10.688Z,5.60
2022-10-20T10:18:38.647Z,5.82
2022-10-20T10:21:08.230Z,5.03
2022-10-20T10:23:41.055Z,5.32
2022-10-20T10:26:47.936Z,5.28
2022-10-20T10:29:28.819Z,4.75
2022-10-20T10:32:01.223Z,5.35
2022-10-20T10:34:43.988Z,5.30
2022-10-20T10:37:15.917Z,4.50
2022-10-20T10:39:42.960Z,5.15
2022-10-20T10:42:25.199Z,5.60
2022-10-20T10:45:25.849Z,4.70
2022-10-20T10:48:10.665Z,4.88
2022-10-20T10:50:44.739Z,4.18
2022-10-20T10:53:13.879Z,4.22
2022-10-20T10:56:11.457Z,4.47
2022-10-20T10:58:54.599Z,4.47
2022-10-20T11:01:34.571Z,4.38
2022-10-20T11:04:29.073Z,4.40
2022-10-20T11:07:09.492Z,3.95
2022-10-20T11:09:57.511Z,4.38
2022-10-20T11:13:03.268Z,4.22
2022-10-20T11:15:57.239Z,4.20
2022-10-20T11:18:44.883Z,4.13
2022-10-20T11:21:36.052Z,4.53
2022-10-20T11:24:43.674Z,4.30
2022-10-20T11:27:21.252Z,3.70
2022-10-20T11:29:49.339Z,3.90
2022-10-20T11:32:22.687Z,4.13
2022-10-20T11:35:14.167Z,4.20
2022-10-20T11:37:57.544Z,4.18
2022-10-20T11:40:27.592Z,4.18
2022-10-20T11:43:10.227Z,4.25
2022-10-20T11:45:51.637Z,4.38
2022-10-20T11:48:33.703Z,4.32
2022-10-20T11:51:25.687Z,3.95
2022-10-20T11:54:01.490Z,3.70
2022-10-20T11:56:42.898Z,3.58
2022-10-20T11:59:35.813Z,4.07
2022-10-20T12:02:05.330Z,4.60
2022-10-20T12:04:40.836Z,4.25
2022-10-20T12:07:31.684Z,4.20
2022-10-20T12:10:01.277Z,4.05
2022-10-20T12:12:38.859Z,4.18
2022-10-20T12:15:20.657Z,4.25
2022-10-20T12:17:47.962Z,4.80
2022-10-20T12:20:20.375Z,4.90
2022-10-20T12:22:51.600Z,4.65
2022-10-20T12:25:27.271Z,4.35
2022-10-20T12:28:24.929Z,4.97
2022-10-20T12:30:58.226Z,4.82
2022-10-20T12:33:54.257Z,5.00
2022-10-20T12:36:28.421Z,5.72
2022-10-20T12:39:09.824Z,4.60
2022-10-20T12:41:45.867Z,4.70
2022-10-20T12:44:18.137Z,4.57
2022-10-20T12:46:57.769Z,4.78
2022-10-20T12:49:50.066Z,4.50
2022-10-20T12:52:20.005Z,5.05
2022-10-20T12:54:48.683Z,5.60
2022-10-20T12:57:30.350Z,5.05
2022-10-20T12:59:57.155Z,5.53
2022-10-20T13:02:23.636Z,4.25
2022-10-20T13:05:08.419Z,4.90
2022-10-20T13:07:46.970Z,4.90
2022-10-20T13:10:31.983Z,4.55
2022-10-20T13:13:01.537Z,4.38
2022-10-20T13:15:30.324Z,5.20
2022-10-20T13:18:00.239Z,5.07
2022-10-20T13:20:41.967Z,4.90
2022-10-20T13:23:46.795Z,5.75
2022-10-20T13:26:28.034Z,4.95
2022-10-20T13:29:00.152Z,6.07
2022-10-20T13:31:35.820Z,5.38
2022-10-20T13:34:15.137Z,5.90
2022-10-20T13:37:02.953Z,5.28
2022-10-20T13:39:50.134Z,4.72
2022-10-20T13:42:52.205Z,4.60
2022-10-20T13:45:49.891Z,5.28
2022-10-20T13:48:19.418Z,4.20
2022-10-20T13:50:53.789Z,5.40
2022-10-20T13:53:25.867Z,4.95
2022-10-20T13:56:17.718Z,5.45
2022-10-20T13:59:05.445Z,5.53
2022-10-20T14:01:35.552Z,5.97
2022-10-20T14:04:02.440Z,5.30
2022-10-20T14:06:37.555Z,5.65
2022-10-20T14:09:25.243Z,6.75
2022-10-20T14:11:54.934Z,5.57
2022-10-20T14:14:27.542Z,6.28
2022-10-20T14:17:05.614Z,5.57
2022-10-20T14:19:33.614Z,5.63
2022-10-20T14:22:10.618Z,5.43
2022-10-20T14:24:45.942Z,5.15
2022-10-20T14:27:27.335Z,5.28
2022-10-20T14:29:54.190Z,6.68
2022-10-20T14:32:26.660Z,5.38
2022-10-20T14:34:58.379Z,6.22
2022-10-20T14:38:02.779Z,6.00
2022-10-20T14:40:35.279Z,6.40
2022-10-20T14:43:17.536Z,6.20
2022-10-20T14:45:54.904Z,5.50
2022-10-20T14:48:21.864Z,5.65
2022-10-20T14:50:49.344Z,6.20
2022-10-20T14:53:31.936Z,6.15
2022-10-20T14:56:02.223Z,5.93
2022-10-20T14:58:36.896Z,6.03
2022-10-20T15:01:33.013Z,5.78
2022-10-20T15:04:04.930Z,6.05
2022-10-20T15:06:32.040Z,6.30
2022-10-20T15:08:58.896Z,5.82
2022-10-20T15:11:27.050Z,5.80
2022-10-20T15:13:55.423Z,6.28
2022-10-20T15:16:41.346Z,6.35
2022-10-20T15:19:29.416Z,6.05
2022-10-20T15:22:09.441Z,5.82
2022-10-20T15:24:36.499Z,7.55
2022-10-20T15:27:03.938Z,6.03
2022-10-20T15:29:30.937Z,6.75
2022-10-20T15:31:58.447Z,6.63
2022-10-20T15:34:25.675Z,6.20
2022-10-20T15:36:52.231Z,7.10
2022-10-20T15:39:18.857Z,6.95
2022-10-20T15:41:47.084Z,7.35
2022-10-20T15:44:19.570Z,5.90
2022-10-20T15:46:46.274Z,6.88
2022-10-20T15:49:12.979Z,7.47
2022-10-20T15:51:42.038Z,8.63
2022-10-20T15:54:08.622Z,7.28
2022-10-20T15:56:35.450Z,8.25
2022-10-20T15:59:03.142Z,8.07
2022-10-20T16:01:29.853Z,8.17
2022-10-20T16:03:56.860Z,8.30
2022-10-20T16:06:23.961Z,7.90
2022-10-20T16:08:51.436Z,8.63
2022-10-20T16:11:19.739Z,8.18
2022-10-20T16:13:46.923Z,8.07
2022-10-20T16:16:16.333Z,7.95
2022-10-20T16:18:42.999Z,8.30
2022-10-20T16:21:09.929Z,9.43
2022-10-20T16:23:42.088Z,9.80
2022-10-20T16:26:12.492Z,9.02
2022-10-20T16:31:07.804Z,10.20
2022-10-20T16:33:35.049Z,10.57
2022-10-20T16:36:04.349Z,10.38
2022-10-20T16:38:31.224Z,9.10
2022-10-20T16:40:59.673Z,10.13
2022-10-20T16:43:26.300Z,9.25
2022-10-20T16:45:52.940Z,9.05
2022-10-20T16:48:19.516Z,9.10
2022-10-20T16:50:46.080Z,9.68
2022-10-20T16:53:12.802Z,10.63
2022-10-20T16:55:39.365Z,10.75
2022-10-20T16:58:05.909Z,9.80
2022-10-20T17:00:32.582Z,11.02
2022-10-20T17:02:59.132Z,11.52
2022-10-20T17:05:26.923Z,10.85
2022-10-20T17:07:53.612Z,10.60
2022-10-20T17:10:20.290Z,10.55
2022-10-20T17:12:47.604Z,10.10
2022-10-20T17:15:14.182Z,9.63
2022-10-20T17:17:40.754Z,10.25
2022-10-20T17:20:07.907Z,10.18
2022-10-20T17:22:34.810Z,10.63
2022-10-20T17:25:01.625Z,11.30
2022-10-20T17:27:28.226Z,11.43
2022-10-20T17:29:54.792Z,10.55
2022-10-20T17:32:21.349Z,10.32
2022-10-20T17:34:47.998Z,9.30
2022-10-20T17:37:14.573Z,9.60
2022-10-20T17:39:41.180Z,11.27
2022-10-20T17:42:07.699Z,11.25
2022-10-20T17:44:34.267Z,11.35
2022-10-20T17:47:01.615Z,10.90
2022-10-20T17:49:28.359Z,11.75
2022-10-20T17:51:54.928Z,11.30
2022-10-20T17:54:22.623Z,11.70
2022-10-20T17:56:52.397Z,10.07
2022-10-20T17:59:18.952Z,11.10
2022-10-20T18:01:45.592Z,10.70
2022-10-20T18:04:14.440Z,11.93
2022-10-20T18:06:42.097Z,11.65
2022-10-20T18:09:11.075Z,10.43
2022-10-20T18:11:38.744Z,10.27
2022-10-20T18:14:05.845Z,10.60
2022-10-20T18:16:34.219Z,11.45
2022-10-20T18:19:01.340Z,10.82
2022-10-20T18:21:29.468Z,10.55
2022-10-20T18:23:57.170Z,9.82
2022-10-20T18:26:24.750Z,11.10
2022-10-20T18:28:52.081Z,11.23
2022-10-20T18:31:24.491Z,11.32
2022-10-20T18:33:57.014Z,12.05
2022-10-20T18:36:24.612Z,12.98
2022-10-20T18:38:51.469Z,13.43
2022-10-20T18:41:26.922Z,12.10
2022-10-20T18:43:58.527Z,11.07
2022-10-20T18:46:26.552Z,11.57
2022-10-20T18:48:53.320Z,11.63
2022-10-20T18:51:19.991Z,11.15
2022-10-20T18:53:47.009Z,11.45
2022-10-20T18:56:16.793Z,11.45
2022-10-20T18:58:51.101Z,10.02
2022-10-20T19:01:19.416Z,10.30
2022-10-20T19:03:47.703Z,10.00
2022-10-20T19:06:18.991Z,10.15
2022-10-20T19:08:45.697Z,10.95
2022-10-20T19:11:13.541Z,11.27
2022-10-20T19:13:40.123Z,10.88
2022-10-20T19:16:09.680Z,10.50
2022-10-20T19:18:37.063Z,10.75
2022-10-20T19:21:06.090Z,11.20
2022-10-20T19:23:34.063Z,9.93
2022-10-20T19:26:04.543Z,10.70
2022-10-20T19:28:32.976Z,9.68
2022-10-20T19:30:59.651Z,10.48
2022-10-20T19:33:27.647Z,9.93
2022-10-20T19:35:54.645Z,10.45
2022-10-20T19:38:21.278Z,11.07
2022-10-20T19:40:47.865Z,10.15
2022-10-20T19:43:14.431Z,10.65
2022-10-20T19:45:41.053Z,11.07
2022-10-20T19:48:07.595Z,11.27
2022-10-20T19:50:34.949Z,11.02
2022-10-20T19:53:01.562Z,10.68
2022-10-20T19:55:28.187Z,10.75
2022-10-20T19:57:54.849Z,11.45
2022-10-20T20:00:21.454Z,10.93
2022-10-20T20:02:48.041Z,11.88
2022-10-20T20:05:14.609Z,11.15
2022-10-20T20:07:41.198Z,10.63
2022-10-20T20:10:07.836Z,11.57
2022-10-20T20:12:34.427Z,11.27
2022-10-20T20:15:01.069Z,11.20
2022-10-20T20:17:27.715Z,11.15
2022-10-20T20:19:54.308Z,11.02
2022-10-20T20:22:20.871Z,11.23
2022-10-20T20:24:47.407Z,11.15
2022-10-20T20:27:14.640Z,10.38
2022-10-20T20:29:41.219Z,11.85
2022-10-20T20:32:07.800Z,11.68
2022-10-20T20:34:34.372Z,11.48
2022-10-20T20:37:00.947Z,11.95
2022-10-20T20:39:27.491Z,11.65
2022-10-20T20:41:54.046Z,10.98
2022-10-20T20:44:20.692Z,10.48
2022-10-20T20:46:47.341Z,11.70
2022-10-20T20:49:14.184Z,10.23
2022-10-20T20:51:40.820Z,10.57
2022-10-20T20:54:08.887Z,10.00
2022-10-20T20:56:35.422Z,10.80
2022-10-20T20:59:03.247Z,10.60
2022-10-20T21:01:34.004Z,11.38
2022-10-20T21:04:02.915Z,11.10
2022-10-20T21:06:33.708Z,11.48
2022-10-20T21:09:01.246Z,11.18
2022-10-20T21:11:28.096Z,10.50
2022-10-20T21:13:57.515Z,9.23
2022-10-20T21:16:27.433Z,10.55
2022-10-20T21:18:57.249Z,10.82
2022-10-20T21:21:26.273Z,10.90
2022-10-20T21:23:53.292Z,11.77
2022-10-20T21:26:21.247Z,10.25
2022-10-20T21:28:48.424Z,11.00
2022-10-20T21:31:18.750Z,10.48
2022-10-20T21:33:46.752Z,10.98
2022-10-20T21:36:14.977Z,11.85
2022-10-20T21:38:42.314Z,11.15
2022-10-20T21:41:11.725Z,11.25
2022-10-20T21:43:40.379Z,10.85
2022-10-20T21:46:13.322Z,13.75
2022-10-20T21:48:40.773Z,11.65
2022-10-20T21:51:11.512Z,10.48
2022-10-20T21:53:38.262Z,11.13
2022-10-20T21:56:05.899Z,12.18
2022-10-20T21:58:32.495Z,11.00
2022-10-20T22:00:59.121Z,11.18
2022-10-20T22:03:25.850Z,11.65
2022-10-20T22:05:52.447Z,10.88
2022-10-20T22:08:19.021Z,11.13
2022-10-20T22:10:45.579Z,12.23
2022-10-20T22:13:12.153Z,12.25
2022-10-20T22:15:39.996Z,10.80
2022-10-20T22:18:06.603Z,10.93
2022-10-20T22:20:35.779Z,11.02
2022-10-20T22:23:02.919Z,10.63
2022-10-20T22:25:29.727Z,11.10
2022-10-20T22:27:56.272Z,10.93
2022-10-20T22:30:22.855Z,11.30
2022-10-20T22:32:49.387Z,10.32
2022-10-20T22:35:15.999Z,9.88
2022-10-20T22:37:42.585Z,10.32
2022-10-20T22:40:09.496Z,11.57
2022-10-20T22:42:36.280Z,10.63
2022-10-20T22:45:03.025Z,11.98
2022-10-20T22:47:29.615Z,10.52
2022-10-20T22:49:56.139Z,9.70
2022-10-20T22:52:22.692Z,10.60
2022-10-20T22:54:49.218Z,11.13
2022-10-20T22:57:15.805Z,11.88
2022-10-20T22:59:42.343Z,11.25
2022-10-20T23:02:08.880Z,11.27
2022-10-20T23:04:35.437Z,11.35
2022-10-20T23:09:33.532Z,11.45
2022-10-20T23:12:00.223Z,11.43
2022-10-20T23:14:26.776Z,11.10
2022-10-20T23:16:53.304Z,10.90
2022-10-20T23:19:20.072Z,10.82
2022-10-20T23:21:46.661Z,11.32
2022-10-20T23:24:13.221Z,11.88
2022-10-20T23:26:39.860Z,10.77
2022-10-20T23:29:06.453Z,11.73
2022-10-20T23:31:32.996Z,11.23
2022-10-20T23:33:59.543Z,11.32
2022-10-20T23:36:26.175Z,9.80
2022-10-20T23:38:52.844Z,11.43
2022-10-20T23:41:19.531Z,11.25
2022-10-20T23:43:46.089Z,10.90
2022-10-20T23:46:13.056Z,10.73
2022-10-20T23:48:40.008Z,10.70
2022-10-20T23:51:07.111Z,10.98
2022-10-20T23:53:34.252Z,11.50
2022-10-20T23:56:00.886Z,11.10
2022-10-20T23:58:27.806Z,10.75
